createdAt,value
2017-09-13T00:02:03.918Z,58.3
2017-09-13T00:07:03.588Z,58.3
2017-09-13T00:12:03.731Z,58.4
2017-09-13T00:17:03.411Z,58.4
2017-09-13T00:22:03.643Z,58.4
2017-09-13T00:27:03.548Z,58.5
2017-09-13T00:32:03.242Z,58.5
2017-09-13T00:37:03.638Z,58.5
2017-09-13T00:42:03.297Z,58.5
2017-09-13T00:47:03.194Z,58.6
2017-09-13T00:52:03.730Z,58.6
2017-09-13T00:57:03.493Z,58.6
2017-09-13T01:02:03.525Z,58.6
2017-09-13T01:07:03.492Z,58.6
2017-09-13T01:12:03.301Z,58.6
2017-09-13T01:17:03.329Z,58.6
2017-09-13T01:22:03.345Z,58.6
2017-09-13T01:27:04.011Z,58.6
2017-09-13T01:32:03.757Z,58.6
2017-09-13T01:37:03.620Z,58.5
2017-09-13T01:42:03.354Z,58.6
2017-09-13T01:47:03.987Z,58.6
2017-09-13T01:52:02.984Z,58.4
2017-09-13T01:57:03.764Z,58.4
2017-09-13T02:02:03.529Z,58.4
2017-09-13T02:07:03.580Z,58.3
2017-09-13T02:12:03.586Z,58.4
2017-09-13T02:17:03.550Z,58.3
2017-09-13T02:22:03.229Z,58.3
2017-09-13T02:27:03.912Z,58.3
2017-09-13T02:32:03.540Z,58.2
2017-09-13T02:37:03.333Z,58.2
2017-09-13T02:42:03.582Z,58.2
2017-09-13T02:47:03.897Z,58.2
2017-09-13T02:52:03.207Z,58.2
2017-09-13T02:57:03.496Z,58.3
2017-09-13T03:02:03.772Z,58.2
2017-09-13T03:07:03.353Z,58.4
2017-09-13T03:12:03.616Z,58.4
2017-09-13T03:17:03.938Z,58.4
2017-09-13T03:22:03.283Z,58.4
2017-09-13T03:27:03.542Z,58.4
2017-09-13T03:32:03.805Z,58.4
2017-09-13T03:37:03.136Z,58.4
2017-09-13T03:42:03.368Z,58.5
2017-09-13T03:47:03.726Z,58.5
2017-09-13T03:52:02.993Z,58.5
2017-09-13T03:57:03.335Z,58.5
2017-09-13T04:02:03.617Z,58.9
2017-09-13T04:07:03.151Z,58.9
2017-09-13T04:12:03.551Z,58.8
2017-09-13T04:17:04.210Z,58.7
2017-09-13T04:22:03.341Z,58.7
2017-09-13T04:27:03.656Z,59.1
2017-09-13T04:32:16.928Z,59.2
2017-09-13T04:37:03.510Z,59.4
2017-09-13T04:42:03.028Z,59.4
2017-09-13T04:47:25.068Z,59.5
2017-09-13T04:52:03.023Z,59.6
2017-09-13T04:57:03.286Z,60.0
2017-09-13T05:02:24.787Z,60.4
2017-09-13T05:07:03.436Z,60.3
2017-09-13T05:12:03.125Z,60.8
2017-09-13T05:17:22.219Z,61.0
2017-09-13T05:22:03.083Z,60.9
2017-09-13T05:27:03.511Z,61.2
2017-09-13T05:32:28.127Z,61.1
2017-09-13T05:37:03.728Z,61.1
2017-09-13T05:42:03.200Z,61.1
2017-09-13T05:47:23.872Z,61.2
2017-09-13T05:52:03.192Z,61.0
2017-09-13T05:57:03.686Z,61.0
2017-09-13T06:02:24.628Z,61.0
2017-09-13T06:07:03.760Z,61.0
2017-09-13T06:12:03.222Z,61.2
2017-09-13T06:17:28.829Z,61.2
2017-09-13T06:22:03.252Z,60.8
2017-09-13T06:27:03.717Z,60.8
2017-09-13T06:32:26.251Z,64.5
2017-09-13T06:37:03.853Z,64.4
2017-09-13T06:42:03.353Z,65.4
2017-09-13T06:47:25.540Z,65.7
2017-09-13T06:52:03.790Z,65.6
2017-09-13T06:57:03.280Z,65.5
2017-09-13T07:02:28.024Z,62.5
2017-09-13T07:07:03.619Z,61.8
2017-09-13T07:12:03.109Z,61.8
2017-09-13T07:17:28.667Z,61.6
2017-09-13T07:22:03.028Z,61.4
2017-09-13T07:27:03.966Z,61.2
2017-09-13T07:32:25.412Z,61.2
2017-09-13T07:37:03.508Z,71.2
2017-09-13T07:42:03.802Z,61.2
2017-09-13T07:47:28.285Z,61.2
2017-09-13T07:52:03.165Z,61.9
2017-09-13T07:57:03.545Z,63.0
2017-09-13T08:02:27.463Z,66.1
2017-09-13T08:07:03.251Z,66.9
2017-09-13T08:12:03.763Z,66.7
2017-09-13T08:17:28.145Z,67.0
2017-09-13T08:22:03.520Z,67.0
2017-09-13T08:27:03.904Z,66.8
2017-09-13T08:32:23.496Z,66.4
2017-09-13T08:37:03.536Z,65.8
2017-09-13T08:42:03.964Z,62.6
2017-09-13T08:47:28.446Z,62.6
2017-09-13T08:52:03.107Z,62.3
2017-09-13T08:57:03.589Z,63.3
2017-09-13T09:02:27.401Z,62.6
2017-09-13T09:07:03.238Z,62.6
2017-09-13T09:12:03.783Z,62.5
2017-09-13T09:17:24.215Z,62.0
2017-09-13T09:22:03.753Z,61.9
2017-09-13T09:27:03.327Z,62.4
2017-09-13T09:32:25.732Z,62.7
2017-09-13T09:37:03.801Z,63.0
2017-09-13T09:42:03.349Z,63.2
2017-09-13T09:47:23.765Z,62.9
2017-09-13T09:52:03.919Z,62.8
2017-09-13T09:57:03.328Z,62.8
2017-09-13T10:02:24.093Z,62.8
2017-09-13T10:07:03.682Z,62.6
2017-09-13T10:12:03.263Z,62.0
2017-09-13T10:17:23.994Z,61.3
2017-09-13T10:22:03.675Z,61.0
2017-09-13T10:27:03.834Z,61.0
2017-09-13T10:32:27.687Z,61.1
2017-09-13T10:37:03.398Z,62.0
2017-09-13T10:42:03.749Z,62.3
2017-09-13T10:47:24.817Z,61.7
2017-09-13T10:52:03.466Z,61.8
2017-09-13T10:57:03.872Z,61.3
2017-09-13T11:02:23.739Z,61.7
2017-09-13T11:07:03.149Z,61.9
2017-09-13T11:12:03.870Z,61.7
2017-09-13T11:17:27.255Z,62.4
2017-09-13T11:22:03.871Z,61.7
2017-09-13T11:27:03.449Z,61.6
2017-09-13T11:32:27.793Z,61.0
2017-09-13T11:37:03.767Z,61.0
2017-09-13T11:42:03.146Z,61.6
2017-09-13T11:47:25.548Z,62.2
2017-09-13T11:52:03.064Z,62.1
2017-09-13T11:57:03.588Z,62.1
2017-09-13T12:02:24.936Z,62.4
2017-09-13T12:07:03.680Z,61.6
2017-09-13T12:12:03.325Z,61.7
2017-09-13T12:17:25.628Z,61.8
2017-09-13T12:22:03.550Z,60.6
2017-09-13T12:27:03.897Z,60.6
2017-09-13T12:32:26.095Z,61.6
2017-09-13T12:37:03.224Z,61.6
2017-09-13T12:42:03.746Z,62.4
2017-09-13T12:47:28.109Z,62.5
2017-09-13T12:52:03.238Z,62.4
2017-09-13T12:57:03.640Z,62.2
2017-09-13T13:02:28.342Z,62.1
2017-09-13T13:07:03.610Z,62.4
2017-09-13T13:12:03.193Z,62.4
2017-09-13T13:17:28.823Z,63.3
2017-09-13T13:22:03.501Z,63.3
2017-09-13T13:27:03.896Z,63.4
2017-09-13T13:32:27.750Z,63.2
2017-09-13T13:37:03.727Z,63.2
2017-09-13T13:42:03.225Z,63.8
2017-09-13T13:47:28.677Z,64.6
2017-09-13T13:52:03.220Z,66.3
2017-09-13T13:57:03.624Z,66.2
2017-09-13T14:02:20.709Z,65.3
2017-09-13T14:07:03.709Z,65.3
2017-09-13T14:12:03.252Z,65.3
2017-09-13T14:17:33.963Z,64.8
2017-09-13T14:22:03.666Z,64.6
2017-09-13T14:27:03.143Z,67.2
2017-09-13T14:32:25.526Z,67.6
2017-09-13T14:37:03.142Z,67.5
2017-09-13T14:42:03.715Z,68.0
2017-09-13T14:47:28.081Z,67.7
2017-09-13T14:52:03.007Z,67.6
2017-09-13T14:57:03.492Z,68.0
2017-09-13T15:02:24.478Z,70.0
2017-09-13T15:07:03.705Z,70.8
2017-09-13T15:12:03.331Z,70.6
2017-09-13T15:17:25.688Z,71.2
2017-09-13T15:22:03.279Z,71.2
2017-09-13T15:27:03.799Z,70.6
2017-09-13T15:32:27.359Z,70.8
2017-09-13T15:37:03.676Z,70.8
2017-09-13T15:42:03.193Z,71.3
2017-09-13T15:47:28.558Z,71.7
2017-09-13T15:52:03.279Z,71.5
2017-09-13T15:57:03.628Z,71.7
2017-09-13T16:02:26.842Z,71.2
2017-09-13T16:07:03.492Z,70.6
2017-09-13T16:12:03.980Z,70.5
2017-09-13T16:17:28.416Z,70.2
2017-09-13T16:22:03.842Z,70.2
2017-09-13T16:27:03.261Z,69.7
2017-09-13T16:32:25.673Z,69.8
2017-09-13T16:37:03.152Z,69.7
2017-09-13T16:42:03.280Z,69.6
2017-09-13T16:47:25.396Z,70.0
2017-09-13T16:52:03.183Z,70.0
2017-09-13T16:57:03.615Z,70.0
2017-09-13T17:02:23.303Z,70.0
2017-09-13T17:07:03.789Z,70.0
2017-09-13T17:12:04.036Z,69.8
2017-09-13T17:17:28.466Z,69.8
2017-09-13T17:22:03.895Z,69.8
2017-09-13T17:27:03.158Z,69.8
2017-09-13T17:32:29.320Z,69.9
2017-09-13T17:37:03.126Z,70.0
2017-09-13T17:42:03.491Z,69.8
2017-09-13T17:47:28.827Z,69.9
2017-09-13T17:52:03.431Z,70.0
2017-09-13T17:57:03.950Z,70.0
2017-09-13T18:02:23.876Z,69.8
2017-09-13T18:07:03.420Z,69.9
2017-09-13T18:12:03.780Z,70.0
2017-09-13T18:17:03.803Z,70.1
2017-09-13T18:22:03.627Z,69.9
2017-09-13T18:27:03.912Z,69.8
2017-09-13T18:32:03.311Z,69.9
2017-09-13T18:37:03.525Z,70.0
2017-09-13T18:42:03.755Z,70.2
2017-09-13T18:47:03.185Z,70.1
2017-09-13T18:52:03.433Z,70.3
2017-09-13T18:57:03.733Z,70.2
2017-09-13T19:02:03.387Z,70.2
2017-09-13T19:07:03.477Z,70.1
2017-09-13T19:12:03.054Z,70.3
2017-09-13T19:17:03.420Z,70.2
2017-09-13T19:22:03.719Z,70.2
2017-09-13T19:27:04.035Z,70.4
2017-09-13T19:32:03.379Z,70.4
2017-09-13T19:37:03.708Z,70.5
2017-09-13T19:42:03.977Z,70.3
2017-09-13T19:47:03.288Z,70.4
2017-09-13T19:52:03.538Z,70.6
2017-09-13T19:57:03.882Z,70.6
2017-09-13T20:02:03.226Z,70.3
2017-09-13T20:07:03.649Z,71.3
2017-09-13T20:12:03.098Z,71.2
2017-09-13T20:17:03.377Z,71.3
2017-09-13T20:22:03.716Z,71.4
2017-09-13T20:27:03.934Z,71.4
2017-09-13T20:32:03.317Z,71.4
2017-09-13T20:37:03.572Z,71.5
2017-09-13T20:42:03.820Z,71.5
2017-09-13T20:47:03.475Z,71.7
2017-09-13T20:52:03.586Z,71.7
2017-09-13T20:57:03.793Z,71.7
2017-09-13T21:02:03.174Z,71.8
2017-09-13T21:07:03.578Z,71.8
2017-09-13T21:12:03.214Z,71.7
2017-09-13T21:17:03.422Z,71.8
2017-09-13T21:22:03.805Z,71.9
2017-09-13T21:27:03.193Z,71.9
2017-09-13T21:32:03.484Z,71.8
2017-09-13T21:37:03.747Z,72.0
2017-09-13T21:42:03.051Z,72.0
2017-09-13T21:47:03.394Z,72.0
2017-09-13T21:52:03.685Z,72.1
2017-09-13T21:57:03.024Z,72.2
2017-09-13T22:02:03.538Z,72.1
2017-09-13T22:07:03.650Z,71.9
2017-09-13T22:12:03.187Z,72.0
2017-09-13T22:22:04.086Z,71.6
2017-09-13T22:27:03.711Z,72.0
2017-09-13T22:32:03.378Z,72.1
2017-09-13T22:37:03.533Z,71.7
2017-09-13T22:42:03.292Z,71.8
2017-09-13T22:47:03.281Z,71.6
2017-09-13T22:52:03.184Z,71.7
2017-09-13T22:57:03.104Z,71.6
2017-09-13T23:02:02.953Z,71.6
2017-09-13T23:07:03.912Z,71.5
2017-09-13T23:12:03.098Z,71.5
2017-09-13T23:17:03.602Z,71.6
2017-09-13T23:22:03.254Z,71.4
2017-09-13T23:27:03.347Z,71.5
2017-09-13T23:32:03.208Z,71.3
2017-09-13T23:37:03.900Z,71.3
2017-09-13T23:42:03.688Z,71.4
2017-09-13T23:47:03.452Z,71.2
2017-09-13T23:52:03.502Z,71.2
2017-09-13T23:57:03.326Z,71.3
